sensor_id;sensor_type;location;lat;lon;timestamp;pressure;altitude;pressure_sealevel;temperature;humidity
18765;BME280;9511;54.242;12.448;2024-02-26T00:01:02;100328.72;;;-0.22;100.00
18765;BME280;9511;54.242;12.448;2024-02-26T00:03:29;100330.50;;;-0.21;100.00
18765;BME280;9511;54.242;12.448;2024-02-26T00:05:58;100327.91;;;-0.21;100.00
18765;BME280;9511;54.242;12.448;2024-02-26T00:08:25;100327.00;;;-0.21;100.00
18765;BME280;9511;54.242;12.448;2024-02-26T00:10:53;100327.81;;;-0.22;100.00
18765;BME280;9511;54.242;12.448;2024-02-26T00:13:21;100325.09;;;-0.24;100.00
18765;BME280;9511;54.242;12.448;2024-02-26T00:15:48;100331.19;;;-0.23;100.00
18765;BME280;9511;54.242;12.448;2024-02-26T00:18:15;100322.25;;;-0.29;100.00
18765;BME280;9511;54.242;12.448;2024-02-26T00:20:42;100327.44;;;-0.29;100.00
18765;BME280;9511;54.242;12.448;2024-02-26T00:23:09;100335.03;;;-0.32;100.00
18765;BME280;9511;54.242;12.448;2024-02-26T00:25:37;100333.16;;;-0.34;100.00
18765;BME280;9511;54.242;12.448;2024-02-26T00:28:05;100339.78;;;-0.39;100.00
18765;BME280;9511;54.242;12.448;2024-02-26T00:30:32;100339.66;;;-0.41;100.00
18765;BME280;9511;54.242;12.448;2024-02-26T00:33:00;100338.88;;;-0.40;100.00
18765;BME280;9511;54.242;12.448;2024-02-26T00:35:27;100347.56;;;-0.39;100.00
18765;BME280;9511;54.242;12.448;2024-02-26T00:37:54;100345.88;;;-0.39;100.00
18765;BME280;9511;54.242;12.448;2024-02-26T00:40:21;100351.06;;;-0.39;100.00
18765;BME280;9511;54.242;12.448;2024-02-26T00:42:48;100351.06;;;-0.39;100.00
18765;BME280;9511;54.242;12.448;2024-02-26T00:45:17;100344.84;;;-0.41;100.00
18765;BME280;9511;54.242;12.448;2024-02-26T00:47:44;100347.44;;;-0.41;100.00
18765;BME280;9511;54.242;12.448;2024-02-26T00:50:13;100352.66;;;-0.41;100.00
18765;BME280;9511;54.242;12.448;2024-02-26T00:52:40;100349.28;;;-0.40;100.00
18765;BME280;9511;54.242;12.448;2024-02-26T00:55:08;100357.84;;;-0.41;100.00
18765;BME280;9511;54.242;12.448;2024-02-26T00:57:35;100356.06;;;-0.42;100.00
18765;BME280;9511;54.242;12.448;2024-02-26T01:00:02;100355.16;;;-0.42;100.00
18765;BME280;9511;54.242;12.448;2024-02-26T01:02:31;100354.47;;;-0.40;100.00
18765;BME280;9511;54.242;12.448;2024-02-26T01:04:58;100355.38;;;-0.39;100.00
18765;BME280;9511;54.242;12.448;2024-02-26T01:07:25;100355.53;;;-0.36;100.00
18765;BME280;9511;54.242;12.448;2024-02-26T01:09:52;100353.53;;;-0.40;100.00
18765;BME280;9511;54.242;12.448;2024-02-26T01:12:20;100353.38;;;-0.43;100.00
18765;BME280;9511;54.242;12.448;2024-02-26T01:14:47;100352.41;;;-0.45;100.00
18765;BME280;9511;54.242;12.448;2024-02-26T01:17:14;100356.56;;;-0.47;100.00
18765;BME280;9511;54.242;12.448;2024-02-26T01:19:42;100352.91;;;-0.51;100.00
18765;BME280;9511;54.242;12.448;2024-02-26T01:22:10;100350.09;;;-0.54;100.00
18765;BME280;9511;54.242;12.448;2024-02-26T01:24:37;100343.41;;;-0.50;100.00
18765;BME280;9511;54.242;12.448;2024-02-26T01:27:04;100351.00;;;-0.54;100.00
18765;BME280;9511;54.242;12.448;2024-02-26T01:29:32;100353.50;;;-0.55;100.00
18765;BME280;9511;54.242;12.448;2024-02-26T01:31:59;100348.81;;;-0.61;100.00
18765;BME280;9511;54.242;12.448;2024-02-26T01:34:26;100354.72;;;-0.63;100.00
18765;BME280;9511;54.242;12.448;2024-02-26T01:36:55;100354.53;;;-0.66;100.00
18765;BME280;9511;54.242;12.448;2024-02-26T01:39:22;100359.72;;;-0.66;100.00
18765;BME280;9511;54.242;12.448;2024-02-26T01:41:49;100356.16;;;-0.68;100.00
18765;BME280;9511;54.242;12.448;2024-02-26T01:44:16;100365.81;;;-0.66;100.00
18765;BME280;9511;54.242;12.448;2024-02-26T01:46:44;100357.13;;;-0.66;100.00
18765;BME280;9511;54.242;12.448;2024-02-26T01:49:12;100354.53;;;-0.66;100.00
18765;BME280;9511;54.242;12.448;2024-02-26T01:51:39;100361.94;;;-0.72;100.00
18765;BME280;9511;54.242;12.448;2024-02-26T01:54:10;100360.34;;;-0.70;100.00
18765;BME280;9511;54.242;12.448;2024-02-26T01:56:39;100365.22;;;-0.75;100.00
18765;BME280;9511;54.242;12.448;2024-02-26T01:59:08;100369.34;;;-0.78;100.00
18765;BME280;9511;54.242;12.448;2024-02-26T02:01:36;100367.44;;;-0.81;100.00
18765;BME280;9511;54.242;12.448;2024-02-26T02:04:03;100363.06;;;-0.82;100.00
18765;BME280;9511;54.242;12.448;2024-02-26T02:06:31;100361.25;;;-0.83;100.00
18765;BME280;9511;54.242;12.448;2024-02-26T02:08:58;100366.25;;;-0.86;100.00
18765;BME280;9511;54.242;12.448;2024-02-26T02:11:33;100361.75;;;-0.89;100.00
18765;BME280;9511;54.242;12.448;2024-02-26T02:14:01;100362.47;;;-0.91;100.00
18765;BME280;9511;54.242;12.448;2024-02-26T02:16:28;100356.41;;;-0.92;100.00
18765;BME280;9511;54.242;12.448;2024-02-26T02:18:55;100353.16;;;-0.88;100.00
18765;BME280;9511;54.242;12.448;2024-02-26T02:21:24;100357.00;;;-0.96;100.00
18765;BME280;9511;54.242;12.448;2024-02-26T02:23:51;100361.97;;;-0.99;100.00
18765;BME280;9511;54.242;12.448;2024-02-26T02:26:43;100366.19;;;-1.01;100.00
18765;BME280;9511;54.242;12.448;2024-02-26T02:29:11;100360.78;;;-1.04;100.00
18765;BME280;9511;54.242;12.448;2024-02-26T02:31:39;100370.97;;;-1.07;100.00
18765;BME280;9511;54.242;12.448;2024-02-26T02:34:06;100364.19;;;-1.05;100.00
18765;BME280;9511;54.242;12.448;2024-02-26T02:36:48;100375.78;;;-1.13;100.00
18765;BME280;9511;54.242;12.448;2024-02-26T02:39:15;100372.97;;;-1.16;100.00
18765;BME280;9511;54.242;12.448;2024-02-26T02:41:42;100378.66;;;-1.22;100.00
18765;BME280;9511;54.242;12.448;2024-02-26T02:44:09;100379.66;;;-1.20;100.00
18765;BME280;9511;54.242;12.448;2024-02-26T02:46:37;100379.66;;;-1.20;100.00
18765;BME280;9511;54.242;12.448;2024-02-26T02:49:07;100376.94;;;-1.21;100.00
18765;BME280;9511;54.242;12.448;2024-02-26T02:51:36;100380.34;;;-1.22;100.00
18765;BME280;9511;54.242;12.448;2024-02-26T02:54:03;100388.03;;;-1.24;100.00
18765;BME280;9511;54.242;12.448;2024-02-26T02:56:30;100381.06;;;-1.25;100.00
18765;BME280;9511;54.242;12.448;2024-02-26T02:58:58;100390.53;;;-1.25;100.00
18765;BME280;9511;54.242;12.448;2024-02-26T03:01:25;100381.88;;;-1.26;100.00
18765;BME280;9511;54.242;12.448;2024-02-26T03:03:52;100377.44;;;-1.27;100.00
18765;BME280;9511;54.242;12.448;2024-02-26T03:06:19;100380.53;;;-1.33;100.00
18765;BME280;9511;54.242;12.448;2024-02-26T03:08:48;100381.97;;;-1.38;100.00
18765;BME280;9511;54.242;12.448;2024-02-26T03:11:15;100381.25;;;-1.35;100.00
18765;BME280;9511;54.242;12.448;2024-02-26T03:13:42;100378.56;;;-1.37;100.00
18765;BME280;9511;54.242;12.448;2024-02-26T03:16:09;100380.75;;;-1.43;100.00
18765;BME280;9511;54.242;12.448;2024-02-26T03:18:38;100384.03;;;-1.45;100.00
18765;BME280;9511;54.242;12.448;2024-02-26T03:21:06;100375.25;;;-1.47;100.00
18765;BME280;9511;54.242;12.448;2024-02-26T03:23:33;100376.72;;;-1.51;100.00
18765;BME280;9511;54.242;12.448;2024-02-26T03:26:04;100375.75;;;-1.53;100.00
18765;BME280;9511;54.242;12.448;2024-02-26T03:28:31;100379.63;;;-1.59;100.00
18765;BME280;9511;54.242;12.448;2024-02-26T03:30:59;100389.69;;;-1.64;100.00
18765;BME280;9511;54.242;12.448;2024-02-26T03:33:26;100393.28;;;-1.62;100.00
18765;BME280;9511;54.242;12.448;2024-02-26T03:35:53;100390.81;;;-1.61;100.00
18765;BME280;9511;54.242;12.448;2024-02-26T03:38:20;100396.28;;;-1.56;100.00
18765;BME280;9511;54.242;12.448;2024-02-26T03:40:48;100397.47;;;-1.51;100.00
18765;BME280;9511;54.242;12.448;2024-02-26T03:43:16;100398.88;;;-1.56;100.00
18765;BME280;9511;54.242;12.448;2024-02-26T03:45:44;100395.06;;;-1.61;100.00
18765;BME280;9511;54.242;12.448;2024-02-26T03:48:11;100395.88;;;-1.62;100.00
18765;BME280;9511;54.242;12.448;2024-02-26T03:50:38;100394.28;;;-1.60;100.00
18765;BME280;9511;54.242;12.448;2024-02-26T03:53:05;100400.56;;;-1.56;100.00
18765;BME280;9511;54.242;12.448;2024-02-26T03:55:34;100399.88;;;-1.54;100.00
18765;BME280;9511;54.242;12.448;2024-02-26T03:58:02;100403.88;;;-1.59;100.00
18765;BME280;9511;54.242;12.448;2024-02-26T04:00:31;100407.25;;;-1.60;100.00
18765;BME280;9511;54.242;12.448;2024-02-26T04:02:58;100403.63;;;-1.62;100.00
18765;BME280;9511;54.242;12.448;2024-02-26T04:05:25;100400.06;;;-1.64;100.00
18765;BME280;9511;54.242;12.448;2024-02-26T04:07:52;100410.44;;;-1.64;100.00
18765;BME280;9511;54.242;12.448;2024-02-26T04:10:19;100406.22;;;-1.62;100.00
18765;BME280;9511;54.242;12.448;2024-02-26T04:12:46;100405.56;;;-1.59;100.00
18765;BME280;9511;54.242;12.448;2024-02-26T04:15:13;100408.25;;;-1.58;100.00
18765;BME280;9511;54.242;12.448;2024-02-26T04:17:42;100412.53;;;-1.58;100.00
18765;BME280;9511;54.242;12.448;2024-02-26T04:20:13;100406.13;;;-1.64;100.00
18765;BME280;9511;54.242;12.448;2024-02-26T04:22:40;100411.00;;;-1.68;100.00
18765;BME280;9511;54.242;12.448;2024-02-26T04:25:08;100410.91;;;-1.70;100.00
18765;BME280;9511;54.242;12.448;2024-02-26T04:27:35;100410.13;;;-1.69;100.00
18765;BME280;9511;54.242;12.448;2024-02-26T04:30:03;100416.09;;;-1.70;100.00
18765;BME280;9511;54.242;12.448;2024-02-26T04:32:31;100418.59;;;-1.71;100.00
18765;BME280;9511;54.242;12.448;2024-02-26T04:34:59;100420.16;;;-1.73;100.00
18765;BME280;9511;54.242;12.448;2024-02-26T04:37:26;100426.16;;;-1.74;100.00
18765;BME280;9511;54.242;12.448;2024-02-26T04:39:57;100432.63;;;-1.81;100.00
18765;BME280;9511;54.242;12.448;2024-02-26T04:42:24;100436.09;;;-1.80;100.00
18765;BME280;9511;54.242;12.448;2024-02-26T04:44:52;100431.81;;;-1.80;100.00
18765;BME280;9511;54.242;12.448;2024-02-26T04:47:19;100431.16;;;-1.77;100.00
18765;BME280;9511;54.242;12.448;2024-02-26T04:49:48;100440.50;;;-1.79;100.00
18765;BME280;9511;54.242;12.448;2024-02-26T04:52:17;100437.22;;;-1.77;100.00
18765;BME280;9511;54.242;12.448;2024-02-26T04:54:44;100443.09;;;-1.79;100.00
18765;BME280;9511;54.242;12.448;2024-02-26T04:57:11;100439.69;;;-1.78;100.00
18765;BME280;9511;54.242;12.448;2024-02-26T04:59:38;100449.97;;;-1.80;100.00
18765;BME280;9511;54.242;12.448;2024-02-26T05:02:06;100452.03;;;-1.88;100.00
18765;BME280;9511;54.242;12.448;2024-02-26T05:04:33;100450.25;;;-1.89;100.00
18765;BME280;9511;54.242;12.448;2024-02-26T05:07:01;100452.84;;;-1.89;100.00
18765;BME280;9511;54.242;12.448;2024-02-26T05:09:29;100455.63;;;-1.85;100.00
18765;BME280;9511;54.242;12.448;2024-02-26T05:11:56;100463.03;;;-1.78;100.00
18765;BME280;9511;54.242;12.448;2024-02-26T05:14:23;100470.22;;;-1.74;100.00
18765;BME280;9511;54.242;12.448;2024-02-26T05:16:50;100473.09;;;-1.83;100.00
18765;BME280;9511;54.242;12.448;2024-02-26T05:19:17;100478.16;;;-1.84;100.00
18765;BME280;9511;54.242;12.448;2024-02-26T05:21:45;100482.91;;;-1.91;100.00
18765;BME280;9511;54.242;12.448;2024-02-26T05:24:14;100488.09;;;-1.91;100.00
18765;BME280;9511;54.242;12.448;2024-02-26T05:26:45;100489.00;;;-1.90;100.00
18765;BME280;9511;54.242;12.448;2024-02-26T05:29:12;100485.63;;;-1.89;100.00
18765;BME280;9511;54.242;12.448;2024-02-26T05:31:41;100497.47;;;-1.93;100.00
18765;BME280;9511;54.242;12.448;2024-02-26T05:34:09;100500.06;;;-1.93;100.00
18765;BME280;9511;54.242;12.448;2024-02-26T05:36:36;100512.94;;;-1.94;100.00
18765;BME280;9511;54.242;12.448;2024-02-26T05:39:03;100504.13;;;-1.96;100.00
18765;BME280;9511;54.242;12.448;2024-02-26T05:41:30;100515.28;;;-1.97;100.00
18765;BME280;9511;54.242;12.448;2024-02-26T05:43:59;100520.28;;;-2.00;100.00
18765;BME280;9511;54.242;12.448;2024-02-26T05:46:26;100524.66;;;-1.99;100.00
18765;BME280;9511;54.242;12.448;2024-02-26T05:48:53;100519.25;;;-2.02;100.00
18765;BME280;9511;54.242;12.448;2024-02-26T05:51:21;100528.16;;;-1.99;100.00
18765;BME280;9511;54.242;12.448;2024-02-26T05:53:48;100533.53;;;-1.96;100.00
18765;BME280;9511;54.242;12.448;2024-02-26T05:56:20;100541.53;;;-1.93;100.00
18765;BME280;9511;54.242;12.448;2024-02-26T05:58:47;100545.34;;;-1.88;100.00
18765;BME280;9511;54.242;12.448;2024-02-26T06:01:17;100542.75;;;-1.88;100.00
18765;BME280;9511;54.242;12.448;2024-02-26T06:03:44;100545.78;;;-1.81;100.00
18765;BME280;9511;54.242;12.448;2024-02-26T06:06:11;100541.22;;;-1.72;100.00
18765;BME280;9511;54.242;12.448;2024-02-26T06:08:38;100549.81;;;-1.73;100.00
18765;BME280;9511;54.242;12.448;2024-02-26T06:11:06;100555.56;;;-1.66;100.00
18765;BME280;9511;54.242;12.448;2024-02-26T06:13:33;100549.00;;;-1.61;100.00
18765;BME280;9511;54.242;12.448;2024-02-26T06:16:01;100560.25;;;-1.60;100.00
18765;BME280;9511;54.242;12.448;2024-02-26T06:18:30;100556.50;;;-1.52;100.00
18765;BME280;9511;54.242;12.448;2024-02-26T06:20:57;100563.00;;;-1.45;100.00
18765;BME280;9511;54.242;12.448;2024-02-26T06:23:24;100564.31;;;-1.39;100.00
18765;BME280;9511;54.242;12.448;2024-02-26T06:25:51;100570.72;;;-1.34;100.00
18765;BME280;9511;54.242;12.448;2024-02-26T06:28:19;100575.34;;;-1.29;100.00
18765;BME280;9511;54.242;12.448;2024-02-26T06:30:46;100580.53;;;-1.29;100.00
18765;BME280;9511;54.242;12.448;2024-02-26T06:33:13;100577.56;;;-1.22;100.00
18765;BME280;9511;54.242;12.448;2024-02-26T06:35:42;100588.16;;;-1.19;100.00
18765;BME280;9511;54.242;12.448;2024-02-26T06:38:09;100574.09;;;-1.10;100.00
18765;BME280;9511;54.242;12.448;2024-02-26T06:40:38;100589.31;;;-1.02;100.00
18765;BME280;9511;54.242;12.448;2024-02-26T06:43:05;100586.44;;;-0.94;100.00
18765;BME280;9511;54.242;12.448;2024-02-26T06:45:32;100595.03;;;-0.95;100.00
18765;BME280;9511;54.242;12.448;2024-02-26T06:47:59;100595.66;;;-0.86;100.00
18765;BME280;9511;54.242;12.448;2024-02-26T06:50:27;100600.63;;;-0.89;100.00
18765;BME280;9511;54.242;12.448;2024-02-26T06:52:55;100602.00;;;-0.94;100.00
18765;BME280;9511;54.242;12.448;2024-02-26T06:55:22;100606.22;;;-0.83;100.00
18765;BME280;9511;54.242;12.448;2024-02-26T06:57:49;100604.84;;;-0.77;100.00
18765;BME280;9511;54.242;12.448;2024-02-26T07:00:17;100610.75;;;-0.80;100.00
18765;BME280;9511;54.242;12.448;2024-02-26T07:02:44;100622.44;;;-0.73;100.00
18765;BME280;9511;54.242;12.448;2024-02-26T07:05:11;100624.84;;;-0.63;100.00
18765;BME280;9511;54.242;12.448;2024-02-26T07:07:38;100625.97;;;-0.60;100.00
18765;BME280;9511;54.242;12.448;2024-02-26T07:10:08;100626.47;;;-0.52;100.00
18765;BME280;9511;54.242;12.448;2024-02-26T07:12:35;100630.66;;;-0.54;100.00
18765;BME280;9511;54.242;12.448;2024-02-26T07:15:03;100632.69;;;-0.50;100.00
18765;BME280;9511;54.242;12.448;2024-02-26T07:17:30;100630.69;;;-0.41;100.00
18765;BME280;9511;54.242;12.448;2024-02-26T07:19:59;100637.06;;;-0.36;100.00
18765;BME280;9511;54.242;12.448;2024-02-26T07:22:27;100637.00;;;-0.37;100.00
18765;BME280;9511;54.242;12.448;2024-02-26T07:24:54;100643.88;;;-0.24;100.00
18765;BME280;9511;54.242;12.448;2024-02-26T07:27:23;100645.31;;;-0.16;100.00
18765;BME280;9511;54.242;12.448;2024-02-26T07:29:50;100649.00;;;-0.13;100.00
18765;BME280;9511;54.242;12.448;2024-02-26T07:32:17;100643.69;;;-0.14;100.00
18765;BME280;9511;54.242;12.448;2024-02-26T07:34:45;100642.47;;;-0.06;100.00
18765;BME280;9511;54.242;12.448;2024-02-26T07:37:12;100622.88;;;-0.01;100.00
18765;BME280;9511;54.242;12.448;2024-02-26T07:39:39;100631.28;;;0.08;100.00
18765;BME280;9511;54.242;12.448;2024-02-26T07:42:06;100634.19;;;0.13;100.00
18765;BME280;9511;54.242;12.448;2024-02-26T07:44:35;100630.56;;;0.11;100.00
18765;BME280;9511;54.242;12.448;2024-02-26T07:47:02;100626.16;;;0.23;100.00
18765;BME280;9511;54.242;12.448;2024-02-26T07:49:29;100621.63;;;0.34;100.00
18765;BME280;9511;54.242;12.448;2024-02-26T07:51:56;100626.53;;;0.42;100.00
18765;BME280;9511;54.242;12.448;2024-02-26T07:54:24;100626.63;;;0.44;100.00
18765;BME280;9511;54.242;12.448;2024-02-26T07:56:51;100627.22;;;0.53;100.00
18765;BME280;9511;54.242;12.448;2024-02-26T07:59:18;100643.38;;;0.62;100.00
18765;BME280;9511;54.242;12.448;2024-02-26T08:01:50;100632.47;;;0.68;100.00
18765;BME280;9511;54.242;12.448;2024-02-26T08:04:17;100625.16;;;0.75;100.00
18765;BME280;9511;54.242;12.448;2024-02-26T08:06:44;100633.34;;;0.82;100.00
18765;BME280;9511;54.242;12.448;2024-02-26T08:09:12;100637.28;;;0.90;100.00
18765;BME280;9511;54.242;12.448;2024-02-26T08:11:39;100638.28;;;0.92;100.00
18765;BME280;9511;54.242;12.448;2024-02-26T08:14:06;100630.88;;;0.98;100.00
18765;BME280;9511;54.242;12.448;2024-02-26T08:16:33;100652.06;;;1.04;100.00
18765;BME280;9511;54.242;12.448;2024-02-26T08:19:02;100654.03;;;1.08;100.00
18765;BME280;9511;54.242;12.448;2024-02-26T08:21:29;100656.50;;;1.20;100.00
18765;BME280;9511;54.242;12.448;2024-02-26T08:23:56;100653.63;;;1.30;100.00
18765;BME280;9511;54.242;12.448;2024-02-26T08:26:23;100650.78;;;1.40;100.00
18765;BME280;9511;54.242;12.448;2024-02-26T08:28:50;100649.63;;;1.50;100.00
18765;BME280;9511;54.242;12.448;2024-02-26T08:31:18;100648.19;;;1.55;100.00
18765;BME280;9511;54.242;12.448;2024-02-26T08:33:45;100652.22;;;1.65;100.00
18765;BME280;9511;54.242;12.448;2024-02-26T08:36:13;100650.88;;;1.71;100.00
18765;BME280;9511;54.242;12.448;2024-02-26T08:38:40;100662.81;;;1.82;100.00
18765;BME280;9511;54.242;12.448;2024-02-26T08:41:08;100666.88;;;1.92;100.00
18765;BME280;9511;54.242;12.448;2024-02-26T08:43:35;100667.16;;;1.97;100.00
18765;BME280;9511;54.242;12.448;2024-02-26T08:46:02;100669.13;;;2.01;100.00
18765;BME280;9511;54.242;12.448;2024-02-26T08:48:29;100676.91;;;2.16;100.00
18765;BME280;9511;54.242;12.448;2024-02-26T08:50:56;100676.44;;;2.23;100.00
18765;BME280;9511;54.242;12.448;2024-02-26T08:53:24;100672.66;;;2.18;100.00
18765;BME280;9511;54.242;12.448;2024-02-26T08:55:52;100678.06;;;2.35;100.00
18765;BME280;9511;54.242;12.448;2024-02-26T08:58:19;100685.97;;;2.37;100.00
18765;BME280;9511;54.242;12.448;2024-02-26T09:00:47;100687.06;;;2.57;100.00
18765;BME280;9511;54.242;12.448;2024-02-26T09:03:14;100683.59;;;2.73;100.00
18765;BME280;9511;54.242;12.448;2024-02-26T09:05:41;100683.63;;;2.89;100.00
18765;BME280;9511;54.242;12.448;2024-02-26T09:08:08;100694.75;;;3.01;100.00
18765;BME280;9511;54.242;12.448;2024-02-26T09:10:37;100685.84;;;3.14;100.00
18765;BME280;9511;54.242;12.448;2024-02-26T09:13:05;100697.38;;;3.17;100.00
18765;BME280;9511;54.242;12.448;2024-02-26T09:15:32;100698.41;;;3.21;100.00
18765;BME280;9511;54.242;12.448;2024-02-26T09:17:59;100702.34;;;3.45;100.00
18765;BME280;9511;54.242;12.448;2024-02-26T09:20:26;100697.50;;;3.53;100.00
18765;BME280;9511;54.242;12.448;2024-02-26T09:22:53;100700.41;;;3.76;100.00
18765;BME280;9511;54.242;12.448;2024-02-26T09:25:20;100700.00;;;3.84;100.00
18765;BME280;9511;54.242;12.448;2024-02-26T09:27:49;100696.34;;;3.98;100.00
18765;BME280;9511;54.242;12.448;2024-02-26T09:30:16;100693.13;;;4.22;100.00
18765;BME280;9511;54.242;12.448;2024-02-26T09:32:45;100698.00;;;4.32;100.00
18765;BME280;9511;54.242;12.448;2024-02-26T09:35:13;100701.59;;;4.52;100.00
18765;BME280;9511;54.242;12.448;2024-02-26T09:37:40;100701.06;;;4.59;100.00
18765;BME280;9511;54.242;12.448;2024-02-26T09:40:10;100698.66;;;4.64;100.00
18765;BME280;9511;54.242;12.448;2024-02-26T09:42:42;100706.28;;;4.77;100.00
18765;BME280;9511;54.242;12.448;2024-02-26T09:45:17;100705.06;;;4.88;100.00
18765;BME280;9511;54.242;12.448;2024-02-26T09:47:45;100707.16;;;4.95;100.00
18765;BME280;9511;54.242;12.448;2024-02-26T09:50:16;100712.84;;;5.24;100.00
18765;BME280;9511;54.242;12.448;2024-02-26T09:52:43;100709.03;;;5.37;100.00
18765;BME280;9511;54.242;12.448;2024-02-26T09:55:11;100713.97;;;5.50;100.00
18765;BME280;9511;54.242;12.448;2024-02-26T09:57:41;100705.59;;;5.57;98.87
18765;BME280;9511;54.242;12.448;2024-02-26T10:00:16;100709.22;;;5.80;98.29
18765;BME280;9511;54.242;12.448;2024-02-26T10:02:45;100707.53;;;5.82;97.24
18765;BME280;9511;54.242;12.448;2024-02-26T10:05:14;100710.03;;;5.98;97.03
18765;BME280;9511;54.242;12.448;2024-02-26T10:07:42;100713.81;;;6.26;96.45
18765;BME280;9511;54.242;12.448;2024-02-26T10:10:10;100711.69;;;6.38;95.84
18765;BME280;9511;54.242;12.448;2024-02-26T10:12:38;100708.97;;;6.57;94.68
18765;BME280;9511;54.242;12.448;2024-02-26T10:15:06;100711.38;;;6.74;93.28
18765;BME280;9511;54.242;12.448;2024-02-26T10:17:35;100713.41;;;6.81;92.69
18765;BME280;9511;54.242;12.448;2024-02-26T10:20:13;100700.63;;;6.90;91.81
18765;BME280;9511;54.242;12.448;2024-02-26T10:22:42;100707.44;;;7.07;91.76
18765;BME280;9511;54.242;12.448;2024-02-26T10:25:09;100708.13;;;7.03;91.25
18765;BME280;9511;54.242;12.448;2024-02-26T10:27:36;100712.72;;;7.31;91.43
18765;BME280;9511;54.242;12.448;2024-02-26T10:30:04;100709.47;;;7.38;90.13
18765;BME280;9511;54.242;12.448;2024-02-26T10:32:42;100710.44;;;7.40;89.12
18765;BME280;9511;54.242;12.448;2024-02-26T10:35:09;100714.19;;;7.47;88.90
18765;BME280;9511;54.242;12.448;2024-02-26T10:37:36;100710.91;;;7.54;88.77
18765;BME280;9511;54.242;12.448;2024-02-26T10:40:04;100709.19;;;7.55;87.29
18765;BME280;9511;54.242;12.448;2024-02-26T10:42:32;100715.91;;;7.70;87.18
18765;BME280;9511;54.242;12.448;2024-02-26T10:44:59;100716.47;;;7.86;87.30
18765;BME280;9511;54.242;12.448;2024-02-26T10:47:28;100715.34;;;8.05;86.37
18765;BME280;9511;54.242;12.448;2024-02-26T10:49:58;100719.50;;;8.23;85.64
18765;BME280;9511;54.242;12.448;2024-02-26T10:52:25;100720.94;;;8.39;85.05
18765;BME280;9511;54.242;12.448;2024-02-26T10:54:54;100723.13;;;8.52;83.89
18765;BME280;9511;54.242;12.448;2024-02-26T10:57:24;100729.25;;;8.78;83.34
18765;BME280;9511;54.242;12.448;2024-02-26T10:59:51;100726.44;;;9.01;82.35
18765;BME280;9511;54.242;12.448;2024-02-26T11:02:20;100727.91;;;9.21;81.98
18765;BME280;9511;54.242;12.448;2024-02-26T11:04:47;100731.56;;;9.25;80.54
18765;BME280;9511;54.242;12.448;2024-02-26T11:07:17;100722.06;;;9.31;79.54
18765;BME280;9511;54.242;12.448;2024-02-26T11:09:46;100723.59;;;9.23;78.43
18765;BME280;9511;54.242;12.448;2024-02-26T11:12:18;100728.97;;;9.26;77.85
18765;BME280;9511;54.242;12.448;2024-02-26T11:14:47;100718.97;;;9.16;77.76
18765;BME280;9511;54.242;12.448;2024-02-26T11:17:19;100719.06;;;9.19;77.77
18765;BME280;9511;54.242;12.448;2024-02-26T11:19:49;100720.00;;;9.21;77.48
18765;BME280;9511;54.242;12.448;2024-02-26T11:22:18;100719.75;;;9.12;76.74
18765;BME280;9511;54.242;12.448;2024-02-26T11:24:48;100723.63;;;8.95;76.61
18765;BME280;9511;54.242;12.448;2024-02-26T11:27:17;100729.53;;;8.88;76.61
18765;BME280;9511;54.242;12.448;2024-02-26T11:29:48;100726.97;;;8.89;76.91
18765;BME280;9511;54.242;12.448;2024-02-26T11:32:18;100733.00;;;8.87;77.01
18765;BME280;9511;54.242;12.448;2024-02-26T11:34:45;100732.63;;;8.74;76.73
18765;BME280;9511;54.242;12.448;2024-02-26T11:37:14;100734.88;;;8.62;76.70
18765;BME280;9511;54.242;12.448;2024-02-26T11:39:43;100729.81;;;8.68;77.08
18765;BME280;9511;54.242;12.448;2024-02-26T11:42:14;100735.69;;;8.88;77.97
18765;BME280;9511;54.242;12.448;2024-02-26T11:44:41;100740.44;;;9.00;78.03
18765;BME280;9511;54.242;12.448;2024-02-26T11:47:12;100739.63;;;9.01;77.07
18765;BME280;9511;54.242;12.448;2024-02-26T11:49:39;100738.94;;;9.07;77.37
18765;BME280;9511;54.242;12.448;2024-02-26T11:52:08;100745.84;;;9.03;77.31
18765;BME280;9511;54.242;12.448;2024-02-26T11:54:40;100733.69;;;9.08;78.55
18765;BME280;9511;54.242;12.448;2024-02-26T11:57:24;100733.50;;;9.02;76.82
18765;BME280;9511;54.242;12.448;2024-02-26T11:59:52;100739.13;;;9.13;76.87
18765;BME280;9511;54.242;12.448;2024-02-26T12:02:39;100738.41;;;9.18;77.27
18765;BME280;9511;54.242;12.448;2024-02-26T12:05:09;100731.28;;;9.16;77.26
18765;BME280;9511;54.242;12.448;2024-02-26T12:07:39;100740.41;;;9.27;78.00
18765;BME280;9511;54.242;12.448;2024-02-26T12:10:22;100740.63;;;9.35;78.46
18765;BME280;9511;54.242;12.448;2024-02-26T12:12:55;100742.38;;;9.34;77.36
18765;BME280;9511;54.242;12.448;2024-02-26T12:15:30;100736.47;;;9.43;76.84
18765;BME280;9511;54.242;12.448;2024-02-26T12:18:00;100739.44;;;9.53;76.20
18765;BME280;9511;54.242;12.448;2024-02-26T12:20:28;100743.31;;;9.66;75.92
18765;BME280;9511;54.242;12.448;2024-02-26T12:22:56;100732.00;;;9.70;75.96
18765;BME280;9511;54.242;12.448;2024-02-26T12:25:24;100745.72;;;9.89;76.18
18765;BME280;9511;54.242;12.448;2024-02-26T12:27:54;100740.22;;;9.81;76.12
18765;BME280;9511;54.242;12.448;2024-02-26T12:30:21;100748.00;;;9.76;74.78
18765;BME280;9511;54.242;12.448;2024-02-26T12:32:50;100747.75;;;9.67;74.44
18765;BME280;9511;54.242;12.448;2024-02-26T12:35:17;100750.16;;;9.58;73.73
18765;BME280;9511;54.242;12.448;2024-02-26T12:37:46;100753.50;;;9.52;73.86
18765;BME280;9511;54.242;12.448;2024-02-26T12:40:13;100749.91;;;9.50;74.64
18765;BME280;9511;54.242;12.448;2024-02-26T12:42:41;100753.78;;;9.63;74.74
18765;BME280;9511;54.242;12.448;2024-02-26T12:45:11;100753.84;;;9.65;75.31
18765;BME280;9511;54.242;12.448;2024-02-26T12:47:38;100752.09;;;9.65;74.43
18765;BME280;9511;54.242;12.448;2024-02-26T12:50:06;100747.31;;;9.52;74.15